sensor_id;sensor_type;location;lat;lon;timestamp;P1;durP1;ratioP1;P2;durP2;ratioP2
22103;SDS011;11218;48.886;9.426;2022-11-20T00:00:54;80.50;;;51.70;;
22103;SDS011;11218;48.886;9.426;2022-11-20T00:03:22;51.72;;;33.08;;
22103;SDS011;11218;48.886;9.426;2022-11-20T00:05:50;45.75;;;26.52;;
22103;SDS011;11218;48.886;9.426;2022-11-20T00:08:18;43.75;;;25.65;;
22103;SDS011;11218;48.886;9.426;2022-11-20T00:10:48;74.63;;;47.28;;
22103;SDS011;11218;48.886;9.426;2022-11-20T00:13:15;89.45;;;51.10;;
22103;SDS011;11218;48.886;9.426;2022-11-20T00:15:43;77.75;;;48.10;;
22103;SDS011;11218;48.886;9.426;2022-11-20T00:18:11;61.00;;;39.40;;
22103;SDS011;11218;48.886;9.426;2022-11-20T00:20:39;65.50;;;38.90;;
22103;SDS011;11218;48.886;9.426;2022-11-20T00:23:07;66.53;;;33.72;;
22103;SDS011;11218;48.886;9.426;2022-11-20T00:25:35;42.40;;;22.35;;
22103;SDS011;11218;48.886;9.426;2022-11-20T00:28:04;53.60;;;33.70;;
22103;SDS011;11218;48.886;9.426;2022-11-20T00:30:32;67.88;;;42.17;;
22103;SDS011;11218;48.886;9.426;2022-11-20T00:33:00;65.00;;;41.45;;
22103;SDS011;11218;48.886;9.426;2022-11-20T00:35:28;70.07;;;37.00;;
22103;SDS011;11218;48.886;9.426;2022-11-20T00:37:55;63.08;;;36.90;;
22103;SDS011;11218;48.886;9.426;2022-11-20T00:40:23;55.53;;;29.13;;
22103;SDS011;11218;48.886;9.426;2022-11-20T00:42:51;66.72;;;40.00;;
22103;SDS011;11218;48.886;9.426;2022-11-20T00:45:20;80.88;;;48.35;;
22103;SDS011;11218;48.886;9.426;2022-11-20T00:47:48;63.58;;;37.83;;
22103;SDS011;11218;48.886;9.426;2022-11-20T00:50:16;73.45;;;47.30;;
22103;SDS011;11218;48.886;9.426;2022-11-20T00:52:44;70.72;;;43.75;;
22103;SDS011;11218;48.886;9.426;2022-11-20T00:55:12;49.38;;;27.02;;
22103;SDS011;11218;48.886;9.426;2022-11-20T00:57:40;46.47;;;19.65;;
22103;SDS011;11218;48.886;9.426;2022-11-20T01:00:08;25.27;;;17.40;;
22103;SDS011;11218;48.886;9.426;2022-11-20T01:02:38;52.20;;;22.25;;
22103;SDS011;11218;48.886;9.426;2022-11-20T01:05:06;54.38;;;30.25;;
22103;SDS011;11218;48.886;9.426;2022-11-20T01:07:34;46.88;;;26.52;;
22103;SDS011;11218;48.886;9.426;2022-11-20T01:10:02;46.03;;;24.83;;
22103;SDS011;11218;48.886;9.426;2022-11-20T01:12:31;46.28;;;28.25;;
22103;SDS011;11218;48.886;9.426;2022-11-20T01:14:58;56.58;;;28.45;;
22103;SDS011;11218;48.886;9.426;2022-11-20T01:17:27;44.17;;;22.17;;
22103;SDS011;11218;48.886;9.426;2022-11-20T01:19:56;53.42;;;28.60;;
22103;SDS011;11218;48.886;9.426;2022-11-20T01:22:24;55.17;;;32.17;;
22103;SDS011;11218;48.886;9.426;2022-11-20T01:24:52;44.63;;;20.38;;
22103;SDS011;11218;48.886;9.426;2022-11-20T01:27:19;122.75;;;56.75;;
22103;SDS011;11218;48.886;9.426;2022-11-20T01:29:48;50.50;;;21.13;;
22103;SDS011;11218;48.886;9.426;2022-11-20T01:32:16;43.03;;;16.88;;
22103;SDS011;11218;48.886;9.426;2022-11-20T01:34:44;33.92;;;14.95;;
22103;SDS011;11218;48.886;9.426;2022-11-20T01:37:13;37.53;;;15.48;;
22103;SDS011;11218;48.886;9.426;2022-11-20T01:39:41;30.45;;;15.27;;
22103;SDS011;11218;48.886;9.426;2022-11-20T01:42:09;39.63;;;16.92;;
22103;SDS011;11218;48.886;9.426;2022-11-20T01:44:55;45.72;;;20.08;;
22103;SDS011;11218;48.886;9.426;2022-11-20T01:47:26;36.70;;;17.40;;
22103;SDS011;11218;48.886;9.426;2022-11-20T01:49:59;37.85;;;16.63;;
22103;SDS011;11218;48.886;9.426;2022-11-20T01:52:34;38.20;;;16.42;;
22103;SDS011;11218;48.886;9.426;2022-11-20T01:55:06;39.38;;;15.90;;
22103;SDS011;11218;48.886;9.426;2022-11-20T01:57:36;32.22;;;15.27;;
22103;SDS011;11218;48.886;9.426;2022-11-20T02:00:07;37.17;;;18.45;;
22103;SDS011;11218;48.886;9.426;2022-11-20T02:02:38;48.67;;;19.42;;
22103;SDS011;11218;48.886;9.426;2022-11-20T02:05:10;41.28;;;19.02;;
22103;SDS011;11218;48.886;9.426;2022-11-20T02:07:45;33.78;;;15.88;;
22103;SDS011;11218;48.886;9.426;2022-11-20T02:10:14;35.03;;;16.65;;
22103;SDS011;11218;48.886;9.426;2022-11-20T02:12:42;41.28;;;17.58;;
22103;SDS011;11218;48.886;9.426;2022-11-20T02:15:28;42.83;;;17.70;;
22103;SDS011;11218;48.886;9.426;2022-11-20T02:17:56;34.63;;;14.27;;
22103;SDS011;11218;48.886;9.426;2022-11-20T02:20:24;33.78;;;13.13;;
22103;SDS011;11218;48.886;9.426;2022-11-20T02:22:55;40.78;;;16.10;;
22103;SDS011;11218;48.886;9.426;2022-11-20T02:25:31;32.05;;;17.27;;
22103;SDS011;11218;48.886;9.426;2022-11-20T02:28:02;41.97;;;21.38;;
22103;SDS011;11218;48.886;9.426;2022-11-20T02:30:32;35.88;;;15.80;;
22103;SDS011;11218;48.886;9.426;2022-11-20T02:33:00;39.35;;;18.60;;
22103;SDS011;11218;48.886;9.426;2022-11-20T02:35:41;55.83;;;24.75;;
22103;SDS011;11218;48.886;9.426;2022-11-20T02:38:10;30.63;;;16.83;;
22103;SDS011;11218;48.886;9.426;2022-11-20T02:40:40;33.38;;;12.57;;
22103;SDS011;11218;48.886;9.426;2022-11-20T02:43:08;39.55;;;12.70;;
22103;SDS011;11218;48.886;9.426;2022-11-20T02:45:36;32.05;;;11.65;;
22103;SDS011;11218;48.886;9.426;2022-11-20T02:48:05;19.95;;;9.60;;
22103;SDS011;11218;48.886;9.426;2022-11-20T02:50:36;31.02;;;12.20;;
22103;SDS011;11218;48.886;9.426;2022-11-20T02:53:05;43.15;;;13.48;;
22103;SDS011;11218;48.886;9.426;2022-11-20T02:55:33;20.58;;;8.90;;
22103;SDS011;11218;48.886;9.426;2022-11-20T02:58:03;27.33;;;10.77;;
22103;SDS011;11218;48.886;9.426;2022-11-20T03:00:30;32.30;;;13.07;;
22103;SDS011;11218;48.886;9.426;2022-11-20T03:02:59;36.05;;;11.70;;
22103;SDS011;11218;48.886;9.426;2022-11-20T03:05:27;34.38;;;12.32;;
22103;SDS011;11218;48.886;9.426;2022-11-20T03:07:55;19.60;;;11.88;;
22103;SDS011;11218;48.886;9.426;2022-11-20T03:10:23;25.52;;;11.10;;
22103;SDS011;11218;48.886;9.426;2022-11-20T03:12:52;24.67;;;9.13;;
22103;SDS011;11218;48.886;9.426;2022-11-20T03:15:23;24.60;;;9.43;;
22103;SDS011;11218;48.886;9.426;2022-11-20T03:17:52;23.48;;;10.27;;
22103;SDS011;11218;48.886;9.426;2022-11-20T03:20:21;22.50;;;9.45;;
22103;SDS011;11218;48.886;9.426;2022-11-20T03:22:49;32.20;;;14.88;;
22103;SDS011;11218;48.886;9.426;2022-11-20T03:25:17;24.92;;;14.85;;
22103;SDS011;11218;48.886;9.426;2022-11-20T03:27:45;25.63;;;13.65;;
22103;SDS011;11218;48.886;9.426;2022-11-20T03:30:13;28.42;;;13.07;;
22103;SDS011;11218;48.886;9.426;2022-11-20T03:32:43;29.40;;;14.95;;
22103;SDS011;11218;48.886;9.426;2022-11-20T03:35:11;29.50;;;15.38;;
22103;SDS011;11218;48.886;9.426;2022-11-20T03:37:39;30.90;;;14.40;;
22103;SDS011;11218;48.886;9.426;2022-11-20T03:40:07;38.03;;;18.40;;
22103;SDS011;11218;48.886;9.426;2022-11-20T03:42:36;32.67;;;17.92;;
22103;SDS011;11218;48.886;9.426;2022-11-20T03:45:13;43.92;;;28.30;;
22103;SDS011;11218;48.886;9.426;2022-11-20T03:47:43;50.92;;;27.63;;
22103;SDS011;11218;48.886;9.426;2022-11-20T03:50:12;32.45;;;15.00;;
22103;SDS011;11218;48.886;9.426;2022-11-20T03:52:40;38.10;;;19.20;;
22103;SDS011;11218;48.886;9.426;2022-11-20T03:55:09;35.47;;;20.42;;
22103;SDS011;11218;48.886;9.426;2022-11-20T03:57:37;43.17;;;23.00;;
22103;SDS011;11218;48.886;9.426;2022-11-20T04:00:05;28.73;;;12.48;;
22103;SDS011;11218;48.886;9.426;2022-11-20T04:02:33;28.73;;;11.00;;
22103;SDS011;11218;48.886;9.426;2022-11-20T04:05:03;37.40;;;14.32;;
22103;SDS011;11218;48.886;9.426;2022-11-20T04:07:33;27.27;;;8.15;;
22103;SDS011;11218;48.886;9.426;2022-11-20T04:10:02;24.70;;;8.70;;
22103;SDS011;11218;48.886;9.426;2022-11-20T04:12:31;33.40;;;10.32;;
22103;SDS011;11218;48.886;9.426;2022-11-20T04:15:00;20.63;;;10.25;;
22103;SDS011;11218;48.886;9.426;2022-11-20T04:17:28;22.63;;;10.15;;
22103;SDS011;11218;48.886;9.426;2022-11-20T04:19:56;27.33;;;9.15;;
22103;SDS011;11218;48.886;9.426;2022-11-20T04:22:25;36.20;;;15.10;;
22103;SDS011;11218;48.886;9.426;2022-11-20T04:24:53;32.60;;;15.63;;
22103;SDS011;11218;48.886;9.426;2022-11-20T04:27:21;26.00;;;9.65;;
22103;SDS011;11218;48.886;9.426;2022-11-20T04:29:49;34.45;;;11.68;;
22103;SDS011;11218;48.886;9.426;2022-11-20T04:32:16;29.17;;;9.65;;
22103;SDS011;11218;48.886;9.426;2022-11-20T04:34:44;34.45;;;10.98;;
22103;SDS011;11218;48.886;9.426;2022-11-20T04:37:12;36.63;;;14.13;;
22103;SDS011;11218;48.886;9.426;2022-11-20T04:39:42;23.35;;;10.93;;
22103;SDS011;11218;48.886;9.426;2022-11-20T04:42:10;29.75;;;11.05;;
22103;SDS011;11218;48.886;9.426;2022-11-20T04:44:56;26.20;;;9.38;;
22103;SDS011;11218;48.886;9.426;2022-11-20T04:47:24;33.63;;;11.70;;
22103;SDS011;11218;48.886;9.426;2022-11-20T04:49:52;29.75;;;10.02;;
22103;SDS011;11218;48.886;9.426;2022-11-20T04:52:20;25.13;;;8.27;;
22103;SDS011;11218;48.886;9.426;2022-11-20T04:54:49;33.70;;;9.45;;
22103;SDS011;11218;48.886;9.426;2022-11-20T04:57:19;21.60;;;7.70;;
22103;SDS011;11218;48.886;9.426;2022-11-20T04:59:47;22.40;;;8.02;;
22103;SDS011;11218;48.886;9.426;2022-11-20T05:02:15;36.08;;;11.95;;
22103;SDS011;11218;48.886;9.426;2022-11-20T05:04:43;32.28;;;10.30;;
22103;SDS011;11218;48.886;9.426;2022-11-20T05:07:11;24.50;;;8.23;;
22103;SDS011;11218;48.886;9.426;2022-11-20T05:09:39;26.92;;;8.57;;
22103;SDS011;11218;48.886;9.426;2022-11-20T05:12:08;32.83;;;9.48;;
22103;SDS011;11218;48.886;9.426;2022-11-20T05:14:36;35.20;;;10.48;;
22103;SDS011;11218;48.886;9.426;2022-11-20T05:17:04;29.75;;;9.55;;
22103;SDS011;11218;48.886;9.426;2022-11-20T05:19:32;32.75;;;10.38;;
22103;SDS011;11218;48.886;9.426;2022-11-20T05:22:00;30.75;;;11.05;;
22103;SDS011;11218;48.886;9.426;2022-11-20T05:24:27;23.48;;;9.98;;
22103;SDS011;11218;48.886;9.426;2022-11-20T05:26:55;23.38;;;8.00;;
22103;SDS011;11218;48.886;9.426;2022-11-20T05:29:25;24.48;;;8.23;;
22103;SDS011;11218;48.886;9.426;2022-11-20T05:31:52;31.25;;;9.10;;
22103;SDS011;11218;48.886;9.426;2022-11-20T05:34:20;25.83;;;9.80;;
22103;SDS011;11218;48.886;9.426;2022-11-20T05:36:48;23.92;;;10.85;;
22103;SDS011;11218;48.886;9.426;2022-11-20T05:39:16;25.92;;;10.05;;
22103;SDS011;11218;48.886;9.426;2022-11-20T05:41:44;37.83;;;11.20;;
22103;SDS011;11218;48.886;9.426;2022-11-20T05:44:34;26.75;;;8.95;;
22103;SDS011;11218;48.886;9.426;2022-11-20T05:47:02;27.70;;;9.23;;
22103;SDS011;11218;48.886;9.426;2022-11-20T05:49:29;28.77;;;9.50;;
22103;SDS011;11218;48.886;9.426;2022-11-20T05:51:57;26.00;;;9.65;;
22103;SDS011;11218;48.886;9.426;2022-11-20T05:54:25;36.17;;;12.90;;
22103;SDS011;11218;48.886;9.426;2022-11-20T05:56:53;19.30;;;8.38;;
22103;SDS011;11218;48.886;9.426;2022-11-20T05:59:21;37.92;;;12.15;;
22103;SDS011;11218;48.886;9.426;2022-11-20T06:01:51;34.67;;;11.13;;
22103;SDS011;11218;48.886;9.426;2022-11-20T06:04:18;34.38;;;11.30;;
22103;SDS011;11218;48.886;9.426;2022-11-20T06:06:47;33.15;;;11.20;;
22103;SDS011;11218;48.886;9.426;2022-11-20T06:09:15;30.70;;;9.38;;
22103;SDS011;11218;48.886;9.426;2022-11-20T06:11:43;27.25;;;8.75;;
22103;SDS011;11218;48.886;9.426;2022-11-20T06:14:11;22.33;;;9.13;;
22103;SDS011;11218;48.886;9.426;2022-11-20T06:16:39;33.60;;;9.32;;
22103;SDS011;11218;48.886;9.426;2022-11-20T06:19:09;40.13;;;12.20;;
22103;SDS011;11218;48.886;9.426;2022-11-20T06:21:37;38.58;;;13.00;;
22103;SDS011;11218;48.886;9.426;2022-11-20T06:24:05;31.45;;;11.30;;
22103;SDS011;11218;48.886;9.426;2022-11-20T06:26:33;32.20;;;10.18;;
22103;SDS011;11218;48.886;9.426;2022-11-20T06:29:01;28.27;;;9.48;;
22103;SDS011;11218;48.886;9.426;2022-11-20T06:31:29;32.63;;;11.52;;
22103;SDS011;11218;48.886;9.426;2022-11-20T06:34:03;33.83;;;10.57;;
22103;SDS011;11218;48.886;9.426;2022-11-20T06:36:33;37.17;;;11.32;;
22103;SDS011;11218;48.886;9.426;2022-11-20T06:39:02;51.30;;;18.05;;
22103;SDS011;11218;48.886;9.426;2022-11-20T06:41:30;40.33;;;13.77;;
22103;SDS011;11218;48.886;9.426;2022-11-20T06:43:58;25.02;;;9.43;;
22103;SDS011;11218;48.886;9.426;2022-11-20T06:46:26;29.23;;;9.75;;
22103;SDS011;11218;48.886;9.426;2022-11-20T06:48:54;37.42;;;10.98;;
22103;SDS011;11218;48.886;9.426;2022-11-20T06:51:22;38.60;;;10.82;;
22103;SDS011;11218;48.886;9.426;2022-11-20T06:53:51;33.33;;;10.93;;
22103;SDS011;11218;48.886;9.426;2022-11-20T06:56:20;36.08;;;11.18;;
22103;SDS011;11218;48.886;9.426;2022-11-20T06:58:48;33.15;;;9.60;;
22103;SDS011;11218;48.886;9.426;2022-11-20T07:01:16;34.33;;;10.13;;
22103;SDS011;11218;48.886;9.426;2022-11-20T07:03:44;39.33;;;11.68;;
22103;SDS011;11218;48.886;9.426;2022-11-20T07:06:19;34.70;;;9.80;;
22103;SDS011;11218;48.886;9.426;2022-11-20T07:08:47;34.17;;;9.25;;
22103;SDS011;11218;48.886;9.426;2022-11-20T07:11:18;28.75;;;8.57;;
22103;SDS011;11218;48.886;9.426;2022-11-20T07:13:46;28.15;;;8.05;;
22103;SDS011;11218;48.886;9.426;2022-11-20T07:16:14;47.95;;;13.00;;
22103;SDS011;11218;48.886;9.426;2022-11-20T07:18:43;32.67;;;9.07;;
22103;SDS011;11218;48.886;9.426;2022-11-20T07:21:16;37.40;;;10.30;;
22103;SDS011;11218;48.886;9.426;2022-11-20T07:23:44;36.90;;;12.13;;
22103;SDS011;11218;48.886;9.426;2022-11-20T07:26:12;29.13;;;9.85;;
22103;SDS011;11218;48.886;9.426;2022-11-20T07:28:43;52.15;;;15.65;;
22103;SDS011;11218;48.886;9.426;2022-11-20T07:31:16;40.55;;;13.88;;
22103;SDS011;11218;48.886;9.426;2022-11-20T07:33:45;37.13;;;13.10;;
22103;SDS011;11218;48.886;9.426;2022-11-20T07:36:13;40.13;;;13.63;;
22103;SDS011;11218;48.886;9.426;2022-11-20T07:38:41;39.10;;;12.15;;
22103;SDS011;11218;48.886;9.426;2022-11-20T07:41:09;39.10;;;11.43;;
22103;SDS011;11218;48.886;9.426;2022-11-20T07:43:37;37.10;;;10.63;;
22103;SDS011;11218;48.886;9.426;2022-11-20T07:46:08;22.42;;;7.38;;
22103;SDS011;11218;48.886;9.426;2022-11-20T07:48:36;41.65;;;13.65;;
22103;SDS011;11218;48.886;9.426;2022-11-20T07:51:05;40.58;;;13.07;;
22103;SDS011;11218;48.886;9.426;2022-11-20T07:53:36;41.83;;;11.65;;
22103;SDS011;11218;48.886;9.426;2022-11-20T07:56:04;43.15;;;12.57;;
22103;SDS011;11218;48.886;9.426;2022-11-20T07:58:35;50.08;;;14.55;;
22103;SDS011;11218;48.886;9.426;2022-11-20T08:01:03;18.80;;;7.25;;
22103;SDS011;11218;48.886;9.426;2022-11-20T08:03:35;26.83;;;8.00;;
22103;SDS011;11218;48.886;9.426;2022-11-20T08:06:04;38.90;;;10.13;;
22103;SDS011;11218;48.886;9.426;2022-11-20T08:08:33;23.60;;;8.80;;
22103;SDS011;11218;48.886;9.426;2022-11-20T08:11:08;27.58;;;9.02;;
22103;SDS011;11218;48.886;9.426;2022-11-20T08:14:08;25.52;;;8.45;;
22103;SDS011;11218;48.886;9.426;2022-11-20T08:16:39;30.13;;;8.60;;
22103;SDS011;11218;48.886;9.426;2022-11-20T08:19:09;24.83;;;8.07;;
22103;SDS011;11218;48.886;9.426;2022-11-20T08:21:41;22.02;;;7.40;;
22103;SDS011;11218;48.886;9.426;2022-11-20T08:24:12;29.75;;;8.25;;
22103;SDS011;11218;48.886;9.426;2022-11-20T08:26:40;23.65;;;7.50;;
22103;SDS011;11218;48.886;9.426;2022-11-20T08:29:08;33.67;;;8.95;;
22103;SDS011;11218;48.886;9.426;2022-11-20T08:31:36;28.48;;;8.77;;
22103;SDS011;11218;48.886;9.426;2022-11-20T08:34:04;28.77;;;9.10;;
22103;SDS011;11218;48.886;9.426;2022-11-20T08:36:36;22.88;;;6.60;;
22103;SDS011;11218;48.886;9.426;2022-11-20T08:39:04;25.52;;;8.30;;
22103;SDS011;11218;48.886;9.426;2022-11-20T08:41:32;28.25;;;8.40;;
22103;SDS011;11218;48.886;9.426;2022-11-20T08:44:00;23.98;;;7.65;;
22103;SDS011;11218;48.886;9.426;2022-11-20T08:46:31;16.90;;;6.13;;
22103;SDS011;11218;48.886;9.426;2022-11-20T08:49:01;28.92;;;9.10;;
22103;SDS011;11218;48.886;9.426;2022-11-20T08:51:32;26.38;;;8.73;;
22103;SDS011;11218;48.886;9.426;2022-11-20T08:54:02;21.00;;;8.75;;
22103;SDS011;11218;48.886;9.426;2022-11-20T08:56:30;32.05;;;10.80;;
22103;SDS011;11218;48.886;9.426;2022-11-20T08:58:59;28.52;;;10.02;;
22103;SDS011;11218;48.886;9.426;2022-11-20T09:01:47;37.47;;;12.57;;
22103;SDS011;11218;48.886;9.426;2022-11-20T09:04:15;27.65;;;11.18;;
22103;SDS011;11218;48.886;9.426;2022-11-20T09:06:42;35.25;;;12.65;;
22103;SDS011;11218;48.886;9.426;2022-11-20T09:09:12;51.33;;;16.15;;
22103;SDS011;11218;48.886;9.426;2022-11-20T09:11:40;24.13;;;9.43;;
22103;SDS011;11218;48.886;9.426;2022-11-20T09:14:07;34.25;;;14.45;;
22103;SDS011;11218;48.886;9.426;2022-11-20T09:16:37;37.03;;;16.98;;
22103;SDS011;11218;48.886;9.426;2022-11-20T09:19:10;35.05;;;12.05;;
22103;SDS011;11218;48.886;9.426;2022-11-20T09:21:57;27.10;;;8.88;;
22103;SDS011;11218;48.886;9.426;2022-11-20T09:24:28;22.90;;;8.40;;
22103;SDS011;11218;48.886;9.426;2022-11-20T09:27:05;23.73;;;7.53;;
22103;SDS011;11218;48.886;9.426;2022-11-20T09:29:33;33.20;;;9.70;;
22103;SDS011;11218;48.886;9.426;2022-11-20T09:32:02;24.58;;;7.22;;
22103;SDS011;11218;48.886;9.426;2022-11-20T09:34:32;30.95;;;8.60;;
22103;SDS011;11218;48.886;9.426;2022-11-20T09:37:00;28.70;;;7.35;;
22103;SDS011;11218;48.886;9.426;2022-11-20T09:39:34;31.55;;;8.05;;
22103;SDS011;11218;48.886;9.426;2022-11-20T09:42:17;36.55;;;9.05;;
22103;SDS011;11218;48.886;9.426;2022-11-20T09:45:10;27.25;;;6.93;;
22103;SDS011;11218;48.886;9.426;2022-11-20T09:47:50;33.08;;;7.93;;
22103;SDS011;11218;48.886;9.426;2022-11-20T09:50:32;22.35;;;6.32;;
22103;SDS011;11218;48.886;9.426;2022-11-20T09:53:08;35.22;;;9.73;;
22103;SDS011;11218;48.886;9.426;2022-11-20T09:55:42;27.67;;;8.95;;
22103;SDS011;11218;48.886;9.426;2022-11-20T09:58:13;34.17;;;11.45;;
22103;SDS011;11218;48.886;9.426;2022-11-20T10:00:43;41.40;;;12.30;;
22103;SDS011;11218;48.886;9.426;2022-11-20T10:03:13;44.63;;;12.07;;
22103;SDS011;11218;48.886;9.426;2022-11-20T10:05:46;37.45;;;10.95;;
22103;SDS011;11218;48.886;9.426;2022-11-20T10:08:19;27.45;;;7.60;;
22103;SDS011;11218;48.886;9.426;2022-11-20T10:10:52;38.67;;;9.80;;
22103;SDS011;11218;48.886;9.426;2022-11-20T10:13:31;23.58;;;6.57;;
22103;SDS011;11218;48.886;9.426;2022-11-20T10:16:11;37.75;;;9.32;;
22103;SDS011;11218;48.886;9.426;2022-11-20T10:18:53;26.92;;;7.35;;
22103;SDS011;11218;48.886;9.426;2022-11-20T10:21:35;40.50;;;10.10;;
22103;SDS011;11218;48.886;9.426;2022-11-20T10:27:31;16.52;;;4.60;;
22103;SDS011;11218;48.886;9.426;2022-11-20T10:30:08;25.75;;;7.40;;
22103;SDS011;11218;48.886;9.426;2022-11-20T10:32:39;21.77;;;6.63;;
22103;SDS011;11218;48.886;9.426;2022-11-20T10:35:14;26.30;;;7.97;;
22103;SDS011;11218;48.886;9.426;2022-11-20T10:37:51;32.10;;;10.63;;
22103;SDS011;11218;48.886;9.426;2022-11-20T10:40:24;25.13;;;8.18;;
22103;SDS011;11218;48.886;9.426;2022-11-20T10:42:59;21.27;;;6.43;;
22103;SDS011;11218;48.886;9.426;2022-11-20T10:45:36;30.63;;;9.40;;
22103;SDS011;11218;48.886;9.426;2022-11-20T10:48:15;27.95;;;7.40;;
22103;SDS011;11218;48.886;9.426;2022-11-20T10:50:55;35.15;;;9.02;;
22103;SDS011;11218;48.886;9.426;2022-11-20T10:56:20;24.42;;;9.20;;
22103;SDS011;11218;48.886;9.426;2022-11-20T11:01:49;56.42;;;13.00;;
22103;SDS011;11218;48.886;9.426;2022-11-20T11:04:21;32.53;;;8.82;;
22103;SDS011;11218;48.886;9.426;2022-11-20T11:06:58;25.27;;;8.20;;
22103;SDS011;11218;48.886;9.426;2022-11-20T11:09:35;40.60;;;9.73;;
22103;SDS011;11218;48.886;9.426;2022-11-20T11:12:07;28.55;;;7.50;;
22103;SDS011;11218;48.886;9.426;2022-11-20T11:14:42;20.67;;;7.07;;
22103;SDS011;11218;48.886;9.426;2022-11-20T11:17:26;34.40;;;8.55;;
22103;SDS011;11218;48.886;9.426;2022-11-20T11:20:03;44.40;;;10.70;;
22103;SDS011;11218;48.886;9.426;2022-11-20T11:22:34;24.15;;;7.10;;
22103;SDS011;11218;48.886;9.426;2022-11-20T11:25:17;33.25;;;9.07;;
22103;SDS011;11218;48.886;9.426;2022-11-20T11:27:48;39.88;;;14.80;;
22103;SDS011;11218;48.886;9.426;2022-11-20T11:30:18;38.63;;;12.05;;
22103;SDS011;11218;48.886;9.426;2022-11-20T11:32:48;25.73;;;11.70;;
22103;SDS011;11218;48.886;9.426;2022-11-20T11:35:21;29.80;;;10.80;;
22103;SDS011;11218;48.886;9.426;2022-11-20T11:37:52;33.85;;;11.93;;
22103;SDS011;11218;48.886;9.426;2022-11-20T11:40:22;29.58;;;9.20;;
22103;SDS011;11218;48.886;9.426;2022-11-20T11:42:54;33.72;;;8.77;;
22103;SDS011;11218;48.886;9.426;2022-11-20T11:45:25;40.83;;;10.05;;
22103;SDS011;11218;48.886;9.426;2022-11-20T11:47:54;43.55;;;12.45;;
22103;SDS011;11218;48.886;9.426;2022-11-20T11:50:25;32.75;;;8.75;;
22103;SDS011;11218;48.886;9.426;2022-11-20T11:53:00;78.53;;;28.90;;
22103;SDS011;11218;48.886;9.426;2022-11-20T11:55:36;44.35;;;16.05;;
22103;SDS011;11218;48.886;9.426;2022-11-20T11:58:11;37.90;;;11.25;;
22103;SDS011;11218;48.886;9.426;2022-11-20T12:00:54;44.63;;;13.02;;
22103;SDS011;11218;48.886;9.426;2022-11-20T12:03:29;25.77;;;7.38;;
22103;SDS011;11218;48.886;9.426;2022-11-20T12:06:04;29.60;;;8.07;;
22103;SDS011;11218;48.886;9.426;2022-11-20T12:08:41;35.25;;;7.68;;
22103;SDS011;11218;48.886;9.426;2022-11-20T12:11:16;31.75;;;7.65;;
22103;SDS011;11218;48.886;9.426;2022-11-20T12:14:00;19.50;;;5.50;;
22103;SDS011;11218;48.886;9.426;2022-11-20T12:16:33;26.92;;;6.40;;
22103;SDS011;11218;48.886;9.426;2022-11-20T12:19:07;21.17;;;5.72;;
22103;SDS011;11218;48.886;9.426;2022-11-20T12:21:40;31.00;;;6.82;;
22103;SDS011;11218;48.886;9.426;2022-11-20T12:24:27;28.70;;;7.38;;
22103;SDS011;11218;48.886;9.426;2022-11-20T12:27:16;30.65;;;7.03;;
22103;SDS011;11218;48.886;9.426;2022-11-20T12:30:07;31.05;;;7.30;;
22103;SDS011;11218;48.886;9.426;2022-11-20T12:32:44;48.08;;;10.10;;
22103;SDS011;11218;48.886;9.426;2022-11-20T12:35:35;39.40;;;8.88;;
22103;SDS011;11218;48.886;9.426;2022-11-20T12:38:27;22.73;;;5.53;;
22103;SDS011;11218;48.886;9.426;2022-11-20T12:41:10;31.42;;;7.15;;
22103;SDS011;11218;48.886;9.426;2022-11-20T12:44:05;23.40;;;5.75;;
22103;SDS011;11218;48.886;9.426;2022-11-20T12:47:06;18.17;;;4.38;;
22103;SDS011;11218;48.886;9.426;2022-11-20T12:49:45;41.72;;;9.00;;
22103;SDS011;11218;48.886;9.426;2022-11-20T12:52:26;29.50;;;9.57;;
22103;SDS011;11218;48.886;9.426;2022-11-20T12:55:13;21.23;;;5.57;;
22103;SDS011;11218;48.886;9.426;2022-11-20T12:57:50;38.00;;;8.35;;
22103;SDS011;11218;48.886;9.426;2022-11-20T13:00:25;38.50;;;15.25;;
22103;SDS011;11218;48.886;9.426;2022-11-20T13:05:55;17.38;;;4.22;;
22103;SDS011;11218;48.886;9.426;2022-11-20T13:08:29;18.13;;;4.53;;
22103;SDS011;11218;48.886;9.426;2022-11-20T13:11:03;42.13;;;8.23;;
22103;SDS011;11218;48.886;9.426;2022-11-20T13:13:42;22.77;;;5.03;;
22103;SDS011;11218;48.886;9.426;2022-11-20T13:16:15;21.80;;;4.45;;
22103;SDS011;11218;48.886;9.426;2022-11-20T13:18:51;17.23;;;4.20;;
22103;SDS011;11218;48.886;9.426;2022-11-20T13:21:20;24.45;;;4.90;;
22103;SDS011;11218;48.886;9.426;2022-11-20T13:24:05;20.27;;;4.80;;
22103;SDS011;11218;48.886;9.426;2022-11-20T13:26:33;26.02;;;6.13;;
22103;SDS011;11218;48.886;9.426;2022-11-20T13:29:03;26.92;;;6.75;;
22103;SDS011;11218;48.886;9.426;2022-11-20T13:34:22;20.77;;;4.85;;
22103;SDS011;11218;48.886;9.426;2022-11-20T13:36:53;18.65;;;4.32;;
22103;SDS011;11218;48.886;9.426;2022-11-20T13:39:27;34.97;;;8.18;;
22103;SDS011;11218;48.886;9.426;2022-11-20T13:41:56;26.17;;;6.78;;
22103;SDS011;11218;48.886;9.426;2022-11-20T13:44:29;35.83;;;15.27;;
22103;SDS011;11218;48.886;9.426;2022-11-20T13:47:01;25.00;;;12.00;;
22103;SDS011;11218;48.886;9.426;2022-11-20T13:49:30;49.95;;;27.98;;
22103;SDS011;11218;48.886;9.426;2022-11-20T13:52:07;79.45;;;49.05;;
22103;SDS011;11218;48.886;9.426;2022-11-20T13:55:01;82.00;;;54.35;;
22103;SDS011;11218;48.886;9.426;2022-11-20T14:00:50;131.65;;;77.65;;
22103;SDS011;11218;48.886;9.426;2022-11-20T14:03:24;157.80;;;87.82;;
22103;SDS011;11218;48.886;9.426;2022-11-20T14:06:20;155.40;;;86.07;;
22103;SDS011;11218;48.886;9.426;2022-11-20T14:08:58;191.27;;;97.82;;
22103;SDS011;11218;48.886;9.426;2022-11-20T14:11:29;292.17;;;119.47;;
22103;SDS011;11218;48.886;9.426;2022-11-20T14:13:59;400.55;;;136.73;;
22103;SDS011;11218;48.886;9.426;2022-11-20T14:16:30;460.27;;;146.45;;
22103;SDS011;11218;48.886;9.426;2022-11-20T14:19:22;133.73;;;79.65;;
22103;SDS011;11218;48.886;9.426;2022-11-20T14:22:07;136.30;;;78.50;;
22103;SDS011;11218;48.886;9.426;2022-11-20T14:24:37;146.35;;;82.55;;
22103;SDS011;11218;48.886;9.426;2022-11-20T14:27:10;166.85;;;90.45;;
22103;SDS011;11218;48.886;9.426;2022-11-20T14:29:40;139.18;;;78.57;;
22103;SDS011;11218;48.886;9.426;2022-11-20T14:32:09;116.85;;;73.00;;
22103;SDS011;11218;48.886;9.426;2022-11-20T14:34:38;161.50;;;86.10;;
22103;SDS011;11218;48.886;9.426;2022-11-20T14:37:10;153.52;;;94.60;;
22103;SDS011;11218;48.886;9.426;2022-11-20T14:39:47;162.23;;;87.78;;
22103;SDS011;11218;48.886;9.426;2022-11-20T14:42:24;112.63;;;73.05;;
22103;SDS011;11218;48.886;9.426;2022-11-20T14:44:55;160.25;;;92.82;;
22103;SDS011;11218;48.886;9.426;2022-11-20T14:47:25;164.75;;;95.75;;
22103;SDS011;11218;48.886;9.426;2022-11-20T14:49:54;121.80;;;75.40;;
22103;SDS011;11218;48.886;9.426;2022-11-20T14:52:25;133.75;;;80.95;;
22103;SDS011;11218;48.886;9.426;2022-11-20T14:54:55;128.52;;;80.05;;
22103;SDS011;11218;48.886;9.426;2022-11-20T14:57:27;137.80;;;82.75;;
22103;SDS011;11218;48.886;9.426;2022-11-20T15:00:07;165.23;;;88.70;;
22103;SDS011;11218;48.886;9.426;2022-11-20T15:02:48;169.20;;;90.45;;
22103;SDS011;11218;48.886;9.426;2022-11-20T15:05:17;146.88;;;84.65;;
22103;SDS011;11218;48.886;9.426;2022-11-20T15:07:47;220.10;;;104.72;;
22103;SDS011;11218;48.886;9.426;2022-11-20T15:10:21;278.52;;;115.88;;